Time;durP1;ratioP1;P1;durP2;ratioP2;P2;SDS_P1;SDS_P2;PMS_P1;PMS_P2;Temp;Humidity;BMP_temperature;BMP_pressure;BME280_temperature;BME280_humidity;BME280_pressure;Samples;Min_cycle;Max_cycle;Signal;HPM_P1;HPM_P2
2023/12/02 00:01:15;;;;;;;50.73;29.33;;;-0.70;99.90;;;;;;6168108;23;20456;-87
2023/12/02 00:03:41;;;;;;;53.27;29.57;;;-0.70;99.90;;;;;;6171494;23;20058;-88
2023/12/02 00:06:07;;;;;;;51.07;28.33;;;-0.70;99.90;;;;;;6174664;23;20978;-88
2023/12/02 00:08:33;;;;;;;52.13;29.80;;;-0.70;99.90;;;;;;6171373;23;20020;-88
2023/12/02 00:10:58;;;;;;;45.40;26.73;;;-0.60;99.90;;;;;;6223141;23;20094;-89
2023/12/02 00:13:24;;;;;;;52.33;28.90;;;-0.60;99.90;;;;;;6197025;23;20251;-88
2023/12/02 00:15:50;;;;;;;46.70;26.80;;;-0.60;99.90;;;;;;6172329;23;20435;-88
2023/12/02 00:18:16;;;;;;;45.60;27.23;;;-0.60;99.90;;;;;;6176677;23;20024;-87
2023/12/02 00:20:41;;;;;;;49.83;28.60;;;-0.70;99.90;;;;;;6145675;23;20035;-88
2023/12/02 00:23:07;;;;;;;54.83;29.03;;;-0.60;99.90;;;;;;6195628;23;20055;-88
2023/12/02 00:25:33;;;;;;;49.43;28.10;;;-0.70;99.90;;;;;;6174452;23;20030;-88
2023/12/02 00:27:58;;;;;;;47.03;28.80;;;-0.70;99.90;;;;;;6226076;23;20016;-88
2023/12/02 00:30:24;;;;;;;47.73;27.03;;;-0.70;99.90;;;;;;6172718;23;20052;-89
2023/12/02 00:32:50;;;;;;;46.53;28.47;;;-0.60;99.90;;;;;;6142614;23;20027;-88
2023/12/02 00:35:15;;;;;;;50.90;28.17;;;-0.70;99.90;;;;;;6219011;23;20047;-88
2023/12/02 00:37:41;;;;;;;47.27;27.20;;;-0.70;99.90;;;;;;6221323;23;20024;-87
2023/12/02 00:40:09;;;;;;;48.33;28.33;;;-0.70;99.90;;;;;;6144412;23;20051;-87
2023/12/02 00:42:34;;;;;;;52.13;27.90;;;-0.70;99.90;;;;;;6184150;23;20099;-88
2023/12/02 00:45:00;;;;;;;50.60;28.50;;;-0.70;99.90;;;;;;6173038;23;20028;-88
2023/12/02 00:47:26;;;;;;;46.97;26.93;;;-0.70;99.90;;;;;;6171432;23;20020;-88
2023/12/02 00:49:51;;;;;;;47.40;27.00;;;-0.70;99.90;;;;;;6220353;23;20016;-88
2023/12/02 00:52:17;;;;;;;54.13;27.77;;;-0.70;99.90;;;;;;6171457;22;20091;-89
2023/12/02 00:54:44;;;;;;;46.90;26.87;;;-0.70;99.90;;;;;;6177509;22;20079;-88
2023/12/02 00:57:10;;;;;;;49.80;27.53;;;-0.80;99.90;;;;;;6253801;22;20030;-87
2023/12/02 00:59:35;;;;;;;49.90;28.17;;;-0.80;99.90;;;;;;6201141;22;20020;-88
2023/12/02 01:02:01;;;;;;;47.40;26.83;;;-0.80;99.90;;;;;;6202827;22;20104;-88
2023/12/02 01:04:27;;;;;;;48.77;27.63;;;-0.80;99.90;;;;;;6225884;22;21106;-89
2023/12/02 01:06:53;;;;;;;48.23;28.10;;;-0.80;99.90;;;;;;6202816;22;20357;-89
2023/12/02 01:09:18;;;;;;;49.87;27.80;;;-0.80;99.90;;;;;;6202508;22;20019;-88
2023/12/02 01:11:44;;;;;;;49.13;27.67;;;-0.80;99.90;;;;;;6178867;22;20353;-88
2023/12/02 01:14:10;;;;;;;50.57;26.87;;;-0.80;99.90;;;;;;6254643;22;20019;-88
2023/12/02 01:16:35;;;;;;;47.40;27.23;;;-0.80;99.90;;;;;;6227297;22;20096;-88
2023/12/02 01:19:01;;;;;;;50.67;29.93;;;-0.80;99.90;;;;;;6204260;22;20062;-88
2023/12/02 01:21:27;;;;;;;49.60;28.13;;;-0.80;99.90;;;;;;6227518;22;20035;-88
2023/12/02 01:23:52;;;;;;;46.80;28.63;;;-0.80;99.90;;;;;;6179050;22;20080;-87
2023/12/02 01:26:18;;;;;;;49.60;27.50;;;-0.70;99.90;;;;;;6252601;22;20020;-87
2023/12/02 01:28:44;;;;;;;47.20;28.43;;;-0.70;99.90;;;;;;6227921;22;20027;-88
2023/12/02 01:31:09;;;;;;;49.97;28.60;;;-0.80;99.90;;;;;;6228241;22;20023;-88
2023/12/02 01:33:35;;;;;;;46.13;27.67;;;-0.80;99.90;;;;;;6201785;22;20030;-88
2023/12/02 01:36:01;;;;;;;52.87;30.10;;;-0.80;99.90;;;;;;6254651;22;20028;-88
2023/12/02 01:38:27;;;;;;;52.37;30.20;;;-0.70;99.90;;;;;;6277326;22;20023;-87
2023/12/02 01:40:53;;;;;;;55.23;29.00;;;-0.80;99.90;;;;;;6203879;22;20420;-88
2023/12/02 01:43:24;;;;;;;50.70;27.83;;;-0.80;99.90;;;;;;6202178;22;20034;-88
2023/12/02 01:45:50;;;;;;;50.87;28.53;;;-0.70;99.90;;;;;;6228062;22;20050;-88
2023/12/02 01:48:16;;;;;;;51.17;28.60;;;-0.70;99.90;;;;;;6228357;22;20099;-87
2023/12/02 01:50:42;;;;;;;49.40;28.23;;;-0.70;99.90;;;;;;6202426;22;20045;-88
2023/12/02 01:53:08;;;;;;;46.40;26.87;;;-0.80;99.90;;;;;;6228988;22;20051;-88
2023/12/02 01:55:33;;;;;;;46.33;28.37;;;-0.80;99.90;;;;;;6201723;22;20457;-87
2023/12/02 01:57:59;;;;;;;51.43;29.30;;;-0.70;99.90;;;;;;6203282;22;20027;-87
2023/12/02 02:00:25;;;;;;;48.50;27.33;;;-0.70;99.90;;;;;;6226575;22;20023;-87
2023/12/02 02:02:50;;;;;;;45.63;28.20;;;-0.70;99.90;;;;;;6203426;22;20019;-87
2023/12/02 02:05:16;;;;;;;48.33;29.57;;;-0.70;99.90;;;;;;6202773;22;20102;-86
2023/12/02 02:07:42;;;;;;;51.00;28.73;;;-0.70;99.90;;;;;;6226277;22;20027;-86
2023/12/02 02:10:08;;;;;;;49.30;29.23;;;-0.70;99.90;;;;;;6228611;22;20016;-88
2023/12/02 02:12:34;;;;;;;49.77;29.27;;;-0.80;99.90;;;;;;6176670;22;20020;-87
2023/12/02 02:14:59;;;;;;;50.33;28.87;;;-0.70;99.90;;;;;;6228096;22;20042;-87
2023/12/02 02:17:25;;;;;;;49.07;28.83;;;-0.70;99.90;;;;;;6201447;22;20051;-88
2023/12/02 02:19:51;;;;;;;54.30;29.67;;;-0.70;99.90;;;;;;6228049;22;20049;-87
2023/12/02 02:22:16;;;;;;;49.63;28.13;;;-0.70;99.90;;;;;;6177515;22;20019;-87
2023/12/02 02:24:42;;;;;;;47.43;27.73;;;-0.70;99.90;;;;;;6201661;22;20023;-87
2023/12/02 02:27:08;;;;;;;48.53;27.27;;;-0.70;99.90;;;;;;6203991;22;20094;-88
2023/12/02 02:29:33;;;;;;;48.00;28.07;;;-0.70;99.90;;;;;;6201095;22;20077;-88
2023/12/02 02:31:59;;;;;;;48.37;27.70;;;-0.80;99.90;;;;;;6253693;22;20023;-89
2023/12/02 02:34:25;;;;;;;49.87;29.17;;;-0.80;99.90;;;;;;6176309;22;20027;-87
2023/12/02 02:36:51;;;;;;;48.17;29.13;;;-0.80;99.90;;;;;;6178474;22;20059;-89
2023/12/02 02:39:17;;;;;;;54.07;29.17;;;-0.80;99.90;;;;;;6202224;22;20020;-88
2023/12/02 02:41:43;;;;;;;47.23;28.27;;;-0.80;99.90;;;;;;6227271;22;20038;-88
2023/12/02 02:44:08;;;;;;;46.10;27.30;;;-0.80;99.90;;;;;;6178890;22;20016;-88
2023/12/02 02:46:34;;;;;;;47.47;28.10;;;-0.80;99.90;;;;;;6226126;22;20027;-88
2023/12/02 02:49:00;;;;;;;49.13;29.77;;;-0.80;99.90;;;;;;6254079;22;20067;-87
2023/12/02 02:51:25;;;;;;;50.47;29.50;;;-0.80;99.90;;;;;;6175513;22;20059;-88
2023/12/02 02:53:51;;;;;;;44.00;26.83;;;-0.80;99.90;;;;;;6253875;22;20023;-88
2023/12/02 02:56:19;;;;;;;49.93;28.30;;;-0.80;99.90;;;;;;6278043;22;20192;-88
2023/12/02 02:58:45;;;;;;;47.33;28.17;;;-0.70;99.90;;;;;;6278601;22;20023;-88
2023/12/02 03:01:11;;;;;;;46.10;27.97;;;-0.70;99.90;;;;;;6279348;22;20054;-89
2023/12/02 03:03:37;;;;;;;49.47;28.07;;;-0.70;99.90;;;;;;6201737;22;20090;-88
2023/12/02 03:06:02;;;;;;;48.10;28.00;;;-0.70;99.90;;;;;;6203354;22;20449;-88
2023/12/02 03:08:28;;;;;;;47.10;27.77;;;-0.70;99.90;;;;;;6175680;22;20028;-88
2023/12/02 03:10:54;;;;;;;46.27;27.70;;;-0.70;99.90;;;;;;6228173;22;20023;-88
2023/12/02 03:13:20;;;;;;;50.00;30.07;;;-0.70;99.90;;;;;;6199543;22;20023;-87
2023/12/02 03:15:45;;;;;;;50.97;28.70;;;-0.70;99.90;;;;;;6173017;23;20013;-87
2023/12/02 03:18:11;;;;;;;50.87;29.37;;;-0.70;99.90;;;;;;6270202;22;20024;-88
2023/12/02 03:20:37;;;;;;;47.87;28.57;;;-0.70;99.90;;;;;;6226099;22;20042;-88
2023/12/02 03:23:03;;;;;;;49.00;29.13;;;-0.70;99.90;;;;;;6202999;22;20016;-88
2023/12/02 03:25:30;;;;;;;48.30;27.80;;;-0.70;99.90;;;;;;6201106;22;20012;-87
2023/12/02 03:27:56;;;;;;;47.87;28.03;;;-0.70;99.90;;;;;;6202942;22;20019;-89
2023/12/02 03:34:06;;;;;;;;;;;-0.70;99.90;;;;;;6278901;22;20024;-88
2023/12/02 03:36:31;;;;;;;47.53;27.50;;;-0.70;99.90;;;;;;6221585;22;20028;-88
2023/12/02 03:38:57;;;;;;;51.80;29.90;;;-0.70;99.90;;;;;;6221767;22;20016;-88
2023/12/02 03:41:23;;;;;;;51.07;29.73;;;-0.70;99.90;;;;;;6218511;22;20045;-89
2023/12/02 03:43:49;;;;;;;52.73;28.50;;;-0.70;99.90;;;;;;6218281;22;20015;-89
2023/12/02 03:46:14;;;;;;;47.57;29.10;;;-0.70;99.90;;;;;;6218689;22;20097;-89
2023/12/02 03:48:40;;;;;;;49.20;28.33;;;-0.70;99.90;;;;;;6218263;22;20050;-88
2023/12/02 03:51:06;;;;;;;52.60;28.20;;;-0.70;99.90;;;;;;6218637;22;20012;-89
2023/12/02 03:53:34;;;;;;;49.73;30.77;;;-0.70;99.90;;;;;;6193299;22;20018;-89
2023/12/02 03:56:01;;;;;;;50.50;29.70;;;-0.70;99.90;;;;;;6243432;22;20116;-88
2023/12/02 03:58:27;;;;;;;51.83;29.60;;;-0.60;99.90;;;;;;6194160;22;20016;-89
2023/12/02 04:00:55;;;;;;;48.10;28.83;;;-0.60;99.90;;;;;;6218341;22;20014;-88
2023/12/02 04:03:21;;;;;;;50.23;29.67;;;-0.70;99.90;;;;;;6217905;22;20043;-88
2023/12/02 04:05:47;;;;;;;48.07;28.40;;;-0.70;99.90;;;;;;6218378;22;20019;-88
2023/12/02 04:08:13;;;;;;;45.77;28.10;;;-0.70;99.90;;;;;;6193645;22;20012;-88
2023/12/02 04:10:38;;;;;;;51.50;29.70;;;-0.70;99.90;;;;;;6218252;22;20024;-88
2023/12/02 04:13:07;;;;;;;48.30;28.30;;;-0.70;99.90;;;;;;6217966;22;20441;-88
2023/12/02 04:15:33;;;;;;;45.00;28.13;;;-0.70;99.90;;;;;;6218534;22;20105;-89
2023/12/02 04:17:59;;;;;;;49.73;29.93;;;-0.70;99.90;;;;;;6218430;22;20034;-88
2023/12/02 04:20:25;;;;;;;56.10;31.00;;;-0.70;99.90;;;;;;6218565;22;20097;-89
2023/12/02 04:22:50;;;;;;;50.00;27.50;;;-0.70;99.90;;;;;;6218456;22;20384;-88
2023/12/02 04:25:16;;;;;;;50.10;28.13;;;-0.70;99.90;;;;;;6197743;22;20437;-88
2023/12/02 04:27:42;;;;;;;49.93;28.63;;;-0.70;99.90;;;;;;6222758;22;20381;-88
2023/12/02 04:30:08;;;;;;;47.33;28.03;;;-0.70;99.90;;;;;;6193808;22;20011;-88
2023/12/02 04:32:34;;;;;;;48.50;28.27;;;-0.80;99.90;;;;;;6244949;22;20023;-89
2023/12/02 04:35:00;;;;;;;47.43;28.43;;;-0.70;99.90;;;;;;6217660;22;20020;-88
2023/12/02 04:37:26;;;;;;;47.27;28.27;;;-0.70;99.90;;;;;;6218889;22;20026;-89
2023/12/02 04:39:54;;;;;;;50.07;28.03;;;-0.70;99.90;;;;;;6218284;22;20020;-88
2023/12/02 04:42:20;;;;;;;51.63;30.40;;;-0.70;99.90;;;;;;6218078;22;20012;-88
2023/12/02 04:44:46;;;;;;;47.53;28.57;;;-0.70;99.90;;;;;;6219123;22;20349;-88
2023/12/02 04:47:12;;;;;;;48.07;28.97;;;-0.70;99.90;;;;;;6245375;22;20094;-88
2023/12/02 04:49:38;;;;;;;46.17;27.00;;;-0.60;99.90;;;;;;6219827;22;20016;-88
2023/12/02 04:52:04;;;;;;;49.97;28.53;;;-0.70;99.90;;;;;;6194106;22;20016;-87
2023/12/02 04:54:30;;;;;;;49.00;27.87;;;-0.70;99.90;;;;;;6219669;22;20090;-88
2023/12/02 04:56:56;;;;;;;45.80;28.20;;;-0.70;99.90;;;;;;6244751;22;20054;-87
2023/12/02 04:59:22;;;;;;;45.47;26.53;;;-0.70;99.90;;;;;;6194631;22;20061;-88
2023/12/02 05:01:47;;;;;;;43.97;27.40;;;-0.70;99.90;;;;;;6219398;22;20020;-87
2023/12/02 05:04:13;;;;;;;42.07;27.20;;;-0.60;99.90;;;;;;6244555;22;20333;-87
2023/12/02 05:06:40;;;;;;;42.80;26.20;;;-0.70;99.90;;;;;;6219634;22;20023;-88
2023/12/02 05:09:08;;;;;;;45.70;28.00;;;-0.70;99.90;;;;;;6221713;22;20011;-87
2023/12/02 05:11:34;;;;;;;44.20;26.50;;;-0.70;99.90;;;;;;6195126;22;20012;-87
2023/12/02 05:14:00;;;;;;;44.70;26.43;;;-0.60;99.90;;;;;;6219540;22;20286;-87
2023/12/02 05:16:25;;;;;;;44.40;26.03;;;-0.60;99.90;;;;;;6194260;22;20012;-87
2023/12/02 05:18:51;;;;;;;46.00;26.93;;;-0.60;99.90;;;;;;6219496;22;20102;-88
2023/12/02 05:21:18;;;;;;;45.07;27.37;;;-0.60;99.90;;;;;;6218914;22;20016;-88
2023/12/02 05:23:44;;;;;;;46.53;27.73;;;-0.60;99.90;;;;;;6219554;22;20016;-87
2023/12/02 05:26:10;;;;;;;43.53;26.23;;;-0.60;99.90;;;;;;6194204;22;21258;-88
2023/12/02 05:28:38;;;;;;;43.23;26.67;;;-0.60;99.90;;;;;;6218876;22;20016;-88
2023/12/02 05:31:04;;;;;;;47.33;28.33;;;-0.60;99.90;;;;;;6219783;22;20483;-88
2023/12/02 05:33:30;;;;;;;42.33;26.53;;;-0.60;99.90;;;;;;6193623;22;20023;-88
2023/12/02 05:35:55;;;;;;;42.77;26.10;;;-0.50;99.90;;;;;;6219142;22;20081;-88
2023/12/02 05:38:23;;;;;;;43.63;26.30;;;-0.60;99.90;;;;;;6218932;22;20330;-89
2023/12/02 05:40:49;;;;;;;44.30;27.10;;;-0.50;99.90;;;;;;6219777;22;20047;-89
2023/12/02 05:43:15;;;;;;;43.50;26.03;;;-0.50;99.90;;;;;;6194335;22;20023;-88
2023/12/02 05:45:41;;;;;;;43.70;27.10;;;-0.50;99.90;;;;;;6219352;22;20007;-88
2023/12/02 05:48:06;;;;;;;47.47;27.57;;;-0.50;99.90;;;;;;6219266;22;20090;-88
2023/12/02 05:50:32;;;;;;;47.07;28.13;;;-0.50;99.90;;;;;;6244738;22;20030;-88
2023/12/02 05:52:58;;;;;;;43.87;26.70;;;-0.50;99.90;;;;;;6244080;22;20007;-87
2023/12/02 05:55:26;;;;;;;45.17;26.40;;;-0.50;99.90;;;;;;6194033;22;20016;-88
2023/12/02 05:57:52;;;;;;;42.60;25.17;;;-0.60;99.90;;;;;;6218844;22;20465;-88
2023/12/02 06:00:19;;;;;;;43.17;25.83;;;-0.50;99.90;;;;;;6218583;22;20012;-88
2023/12/02 06:02:45;;;;;;;45.73;26.40;;;-0.50;99.90;;;;;;6193029;22;20039;-89
2023/12/02 06:05:11;;;;;;;44.40;26.00;;;-0.50;99.90;;;;;;6219223;22;20015;-88
2023/12/02 06:07:36;;;;;;;43.17;25.87;;;-0.60;99.90;;;;;;6219422;22;20072;-88
2023/12/02 06:10:02;;;;;;;42.17;25.33;;;-0.60;99.90;;;;;;6244700;22;20094;-88
2023/12/02 06:12:28;;;;;;;43.17;25.33;;;-0.60;99.90;;;;;;6169375;22;20081;-88
2023/12/02 06:14:54;;;;;;;47.20;26.77;;;-0.60;99.90;;;;;;6243977;22;20392;-87
2023/12/02 06:17:20;;;;;;;44.97;27.03;;;-0.60;99.90;;;;;;6218828;22;20492;-88
2023/12/02 06:19:45;;;;;;;44.30;25.10;;;-0.60;99.90;;;;;;6218157;22;20057;-88
2023/12/02 06:22:11;;;;;;;49.17;27.10;;;-0.60;99.90;;;;;;6219251;22;20019;-88
2023/12/02 06:24:37;;;;;;;46.37;27.27;;;-0.60;99.90;;;;;;6194166;22;20049;-89
2023/12/02 06:27:03;;;;;;;47.93;27.77;;;-0.70;99.90;;;;;;6219184;22;20337;-89
2023/12/02 06:29:29;;;;;;;47.17;27.27;;;-0.70;99.90;;;;;;6218696;22;20011;-89
2023/12/02 06:31:54;;;;;;;46.63;27.37;;;-0.60;99.90;;;;;;6219203;22;20537;-89
2023/12/02 06:34:20;;;;;;;45.53;27.30;;;-0.60;99.90;;;;;;6218910;22;20089;-89
2023/12/02 06:36:46;;;;;;;46.77;27.23;;;-0.60;99.90;;;;;;6218361;22;20450;-89
2023/12/02 06:39:12;;;;;;;45.33;26.87;;;-0.60;99.90;;;;;;6218879;22;20201;-89
2023/12/02 06:41:41;;;;;;;47.30;28.03;;;-0.60;99.90;;;;;;6218510;22;20012;-89
2023/12/02 06:44:07;;;;;;;47.90;27.33;;;-0.60;99.90;;;;;;6195191;22;20114;-89
2023/12/02 06:46:33;;;;;;;51.03;28.50;;;-0.60;99.90;;;;;;6193363;22;20011;-92
2023/12/02 06:48:59;;;;;;;47.10;26.77;;;-0.60;99.90;;;;;;6218589;22;20012;-87
2023/12/02 06:51:28;;;;;;;44.37;26.70;;;-0.60;99.90;;;;;;6218904;22;20014;-89
2023/12/02 06:53:58;;;;;;;49.13;27.93;;;-0.60;99.90;;;;;;6170542;22;20015;-88
2023/12/02 06:56:24;;;;;;;50.17;28.60;;;-0.60;99.90;;;;;;6219865;22;20016;-91
2023/12/02 06:58:52;;;;;;;50.73;28.37;;;-0.60;99.90;;;;;;6218958;22;20076;-89
2023/12/02 07:01:31;;;;;;;54.40;29.10;;;-0.60;99.90;;;;;;6218558;22;20027;-89
2023/12/02 07:03:58;;;;;;;55.00;28.80;;;-0.60;99.90;;;;;;6244128;22;20023;-88
2023/12/02 07:06:25;;;;;;;50.50;28.33;;;-0.60;99.90;;;;;;6218370;22;20012;-87
2023/12/02 07:08:52;;;;;;;47.77;27.07;;;-0.60;99.90;;;;;;6218054;22;20409;-89
2023/12/02 07:11:20;;;;;;;51.77;28.70;;;-0.60;99.90;;;;;;6194725;22;20015;-88
2023/12/02 07:13:45;;;;;;;48.93;28.07;;;-0.60;99.90;;;;;;6218272;22;20023;-88
2023/12/02 07:16:12;;;;;;;49.13;27.93;;;-0.60;99.90;;;;;;6218610;22;20019;-88
2023/12/02 07:18:39;;;;;;;52.70;29.23;;;-0.60;99.90;;;;;;6219684;22;20033;-88
2023/12/02 07:21:05;;;;;;;54.23;28.33;;;-0.70;99.90;;;;;;6199475;22;20399;-88
2023/12/02 07:23:31;;;;;;;50.53;29.40;;;-0.60;99.90;;;;;;6197035;22;20023;-88
2023/12/02 07:25:58;;;;;;;55.50;30.63;;;-0.70;99.90;;;;;;6220505;22;20140;-89
2023/12/02 07:28:24;;;;;;;49.97;27.70;;;-0.70;99.90;;;;;;6246026;22;20460;-89
2023/12/02 07:30:50;;;;;;;53.47;28.73;;;-0.70;99.90;;;;;;6218942;22;20016;-87
2023/12/02 07:33:19;;;;;;;54.60;30.00;;;-0.70;99.90;;;;;;6198173;23;20020;-88
2023/12/02 07:35:45;;;;;;;55.07;29.90;;;-0.60;99.90;;;;;;6188103;23;20107;-86
2023/12/02 07:38:11;;;;;;;52.53;28.57;;;-0.70;99.90;;;;;;6163731;23;20035;-87
2023/12/02 07:40:37;;;;;;;53.03;29.40;;;-0.60;99.90;;;;;;6188180;23;20016;-89
2023/12/02 07:43:03;;;;;;;49.30;28.03;;;-0.60;99.90;;;;;;6187629;23;20023;-87
2023/12/02 07:45:29;;;;;;;54.60;29.23;;;-0.70;99.90;;;;;;6161385;23;20039;-87
2023/12/02 07:47:55;;;;;;;49.40;28.03;;;-0.60;99.90;;;;;;6186854;23;20016;-88
2023/12/02 07:50:21;;;;;;;57.03;30.70;;;-0.60;99.90;;;;;;6187889;23;20050;-88
2023/12/02 07:52:47;;;;;;;52.87;28.83;;;-0.70;99.90;;;;;;6187576;23;20074;-87
2023/12/02 07:55:13;;;;;;;55.33;29.10;;;-0.60;99.90;;;;;;6186506;23;20392;-89
2023/12/02 07:57:39;;;;;;;53.10;29.23;;;-0.60;99.90;;;;;;6187756;23;20026;-87
2023/12/02 08:00:07;;;;;;;49.43;28.03;;;-0.60;99.90;;;;;;6163292;23;20066;-89
2023/12/02 08:02:33;;;;;;;54.10;29.67;;;-0.60;99.90;;;;;;6187438;23;20056;-89
2023/12/02 08:04:59;;;;;;;53.47;29.23;;;-0.60;99.90;;;;;;6211719;23;20019;-88
2023/12/02 08:07:25;;;;;;;54.17;29.30;;;-0.50;99.90;;;;;;6215999;23;20478;-88
2023/12/02 08:09:51;;;;;;;49.73;28.77;;;-0.50;99.90;;;;;;6188714;23;20095;-92
2023/12/02 08:12:17;;;;;;;49.10;28.13;;;-0.50;99.90;;;;;;6190391;23;20019;-88
2023/12/02 08:14:42;;;;;;;50.70;28.90;;;-0.50;99.90;;;;;;6165310;23;20008;-88
2023/12/02 08:17:08;;;;;;;50.87;28.77;;;-0.50;99.90;;;;;;6191744;23;20365;-88
2023/12/02 08:19:35;;;;;;;53.13;27.93;;;-0.50;99.90;;;;;;6167857;23;20022;-88
2023/12/02 08:22:01;;;;;;;49.07;28.50;;;-0.50;99.90;;;;;;6167163;23;20472;-89
2023/12/02 08:24:27;;;;;;;53.40;27.90;;;-0.50;99.90;;;;;;6162848;23;20461;-87
2023/12/02 08:26:53;;;;;;;53.93;29.73;;;-0.50;99.90;;;;;;6188960;23;20024;-87
2023/12/02 08:29:18;;;;;;;52.00;27.57;;;-0.40;99.90;;;;;;6213268;23;20016;-87
2023/12/02 08:31:44;;;;;;;54.87;29.27;;;-0.40;99.90;;;;;;6188334;22;20016;-87
2023/12/02 08:34:10;;;;;;;54.53;29.97;;;-0.40;99.90;;;;;;6189357;23;20096;-87
2023/12/02 08:36:36;;;;;;;51.93;28.10;;;-0.50;99.90;;;;;;6194288;23;20055;-88
2023/12/02 08:39:05;;;;;;;51.77;29.13;;;-0.50;99.90;;;;;;6214254;23;20020;-88
2023/12/02 08:41:31;;;;;;;51.13;28.23;;;-0.40;99.90;;;;;;6165091;23;20020;-88
2023/12/02 08:43:57;;;;;;;50.60;28.50;;;-0.40;99.90;;;;;;6164591;23;20055;-89
2023/12/02 08:46:24;;;;;;;50.57;28.47;;;-0.40;99.90;;;;;;6189274;23;20086;-92
2023/12/02 08:48:50;;;;;;;53.33;28.47;;;-0.30;99.90;;;;;;6190750;23;20019;-91
2023/12/02 08:51:16;;;;;;;51.27;29.37;;;-0.30;99.90;;;;;;6190040;23;20012;-91
2023/12/02 08:53:42;;;;;;;50.37;27.60;;;-0.30;99.90;;;;;;6141207;23;20397;-90
2023/12/02 08:56:08;;;;;;;53.23;29.73;;;-0.30;99.90;;;;;;6189936;23;20008;-89
2023/12/02 08:58:34;;;;;;;52.30;27.50;;;-0.30;99.90;;;;;;6164368;23;20124;-90
2023/12/02 09:01:00;;;;;;;51.47;29.37;;;-0.30;99.90;;;;;;6213626;23;20016;-88
2023/12/02 09:03:26;;;;;;;47.03;26.13;;;-0.30;99.90;;;;;;6187936;23;20012;-89
2023/12/02 09:05:55;;;;;;;51.80;29.20;;;-0.20;99.90;;;;;;6188063;23;20016;-90
2023/12/02 09:08:22;;;;;;;50.43;27.73;;;-0.20;99.90;;;;;;6189086;23;20026;-90
2023/12/02 09:10:48;;;;;;;45.63;27.17;;;-0.20;99.90;;;;;;6189365;23;20012;-90
2023/12/02 09:13:33;;;;;;;50.80;27.63;;;-0.20;99.90;;;;;;6189681;23;20008;-90
2023/12/02 09:16:02;;;;;;;53.23;28.07;;;-0.10;99.90;;;;;;6189325;23;20012;-90
2023/12/02 09:18:35;;;;;;;48.57;27.27;;;-0.10;99.90;;;;;;6189183;23;20051;-88
2023/12/02 09:21:02;;;;;;;50.67;26.83;;;-0.10;99.90;;;;;;6189166;23;20094;-89
2023/12/02 09:23:29;;;;;;;51.17;28.77;;;-0.10;99.90;;;;;;6213938;23;20082;-89
2023/12/02 09:25:59;;;;;;;53.60;28.97;;;0.00;99.90;;;;;;6188884;23;20101;-90
2023/12/02 09:28:29;;;;;;;49.23;28.50;;;0.00;99.90;;;;;;6188235;23;20020;-88
2023/12/02 09:30:58;;;;;;;49.13;27.67;;;0.00;99.90;;;;;;6164395;23;20016;-87
2023/12/02 09:33:28;;;;;;;54.27;28.43;;;0.10;99.90;;;;;;6240959;22;20034;-89
2023/12/02 09:35:57;;;;;;;53.13;27.83;;;0.10;99.90;;;;;;6251028;22;20007;-88
2023/12/02 09:38:23;;;;;;;51.53;28.23;;;0.20;99.90;;;;;;6250723;22;20389;-88
2023/12/02 09:41:13;;;;;;;51.70;29.07;;;0.20;99.90;;;;;;6251059;22;20019;-89
2023/12/02 09:44:11;;;;;;;49.07;27.03;;;0.30;99.90;;;;;;6249895;22;20340;-89
2023/12/02 09:46:45;;;;;;;49.73;27.57;;;0.30;99.90;;;;;;6249712;22;20047;-88
2023/12/02 09:49:26;;;;;;;50.07;27.17;;;0.30;99.90;;;;;;6227250;22;20034;-88
2023/12/02 09:51:58;;;;;;;50.03;27.63;;;0.30;99.90;;;;;;6249328;22;20467;-88
2023/12/02 09:54:27;;;;;;;52.07;27.90;;;0.30;99.90;;;;;;6275131;22;20442;-88
2023/12/02 09:56:56;;;;;;;49.10;27.57;;;0.40;99.90;;;;;;6279565;22;20458;-88
2023/12/02 09:59:54;;;;;;;53.37;28.23;;;0.40;99.90;;;;;;6250634;22;20019;-88
2023/12/02 10:02:48;;;;;;;51.10;28.33;;;0.40;99.90;;;;;;6266554;22;20022;-87
2023/12/02 10:05:15;;;;;;;48.73;27.97;;;0.50;99.90;;;;;;6249250;22;20090;-88
2023/12/02 10:07:40;;;;;;;51.00;28.77;;;0.60;99.90;;;;;;6249422;22;20020;-86
2023/12/02 10:10:13;;;;;;;51.60;28.47;;;0.60;99.90;;;;;;6275342;22;20034;-88
2023/12/02 10:12:55;;;;;;;51.63;29.20;;;0.60;99.90;;;;;;6249328;22;20444;-92
2023/12/02 10:15:27;;;;;;;49.30;27.60;;;0.70;99.90;;;;;;6264100;22;20084;-93
2023/12/02 10:17:56;;;;;;;49.17;27.88;;;0.80;99.90;;;;;;6254014;22;20102;-91
2023/12/02 10:20:28;;;;;;;49.33;28.17;;;0.80;99.90;;;;;;6257147;22;20047;-91
2023/12/02 10:23:13;;;;;;;53.03;28.35;;;0.90;99.90;;;;;;6260754;22;20097;-92
2023/12/02 10:25:46;;;;;;;48.80;27.27;;;1.00;99.90;;;;;;6263766;22;20021;-93
2023/12/02 10:28:28;;;;;;;49.27;27.93;;;1.00;99.90;;;;;;6258947;22;20015;-91
2023/12/02 10:30:58;;;;;;;50.53;28.42;;;1.10;99.90;;;;;;6266163;22;20007;-92
2023/12/02 10:33:50;;;;;;;51.90;29.13;;;1.20;99.90;;;;;;6263635;22;20094;-92
2023/12/02 10:36:20;;;;;;;52.70;28.88;;;1.30;99.90;;;;;;6267030;22;20035;-92
2023/12/02 10:39:09;;;;;;;49.03;27.07;;;1.30;99.90;;;;;;6257306;22;20012;-93
2023/12/02 10:41:51;;;;;;;50.70;27.83;;;1.30;99.90;;;;;;6257754;22;20007;-90
2023/12/02 10:44:20;;;;;;;49.72;26.80;;;1.40;99.90;;;;;;6255430;22;20318;-92
2023/12/02 10:46:49;;;;;;;45.37;26.37;;;1.40;99.90;;;;;;6261937;22;20016;-92
2023/12/02 10:49:16;;;;;;;49.63;27.47;;;1.40;99.90;;;;;;6230533;22;20008;-92
2023/12/02 10:51:44;;;;;;;49.87;27.07;;;1.40;99.90;;;;;;6262097;22;20008;-93
2023/12/02 10:54:15;;;;;;;47.90;27.20;;;1.40;99.90;;;;;;6255459;22;20321;-92
2023/12/02 10:56:45;;;;;;;46.93;26.97;;;1.40;99.90;;;;;;6280477;22;20053;-91
2023/12/02 10:59:11;;;;;;;47.27;27.13;;;1.40;99.90;;;;;;6260336;22;20015;-91
2023/12/02 11:02:00;;;;;;;45.80;26.67;;;1.40;99.90;;;;;;6256786;22;20043;-90
2023/12/02 11:04:34;;;;;;;48.30;27.43;;;1.40;99.90;;;;;;6239139;22;20016;-90
2023/12/02 11:07:07;;;;;;;47.47;27.30;;;1.40;99.90;;;;;;6256341;22;20098;-91
2023/12/02 11:09:54;;;;;;;47.60;28.17;;;1.40;99.90;;;;;;6256175;22;20007;-93
2023/12/02 11:12:37;;;;;;;47.93;27.70;;;1.40;99.90;;;;;;6262598;22;20364;-94
2023/12/02 11:15:09;;;;;;;45.50;26.67;;;1.40;99.90;;;;;;6263404;22;20011;-92
2023/12/02 11:17:48;;;;;;;46.35;26.50;;;1.50;99.90;;;;;;6258374;22;20072;-93
2023/12/02 11:20:42;;;;;;;50.27;26.87;;;1.50;99.90;;;;;;6254250;22;20340;-95
2023/12/02 11:23:25;;;;;;;50.47;26.63;;;1.50;99.90;;;;;;6269865;22;20015;-94
2023/12/02 11:26:28;;;;;;;45.80;27.20;;;1.60;99.90;;;;;;6265604;22;20040;-94
2023/12/02 11:29:01;;;;;;;46.80;26.87;;;1.60;99.90;;;;;;6259751;22;20444;-92
2023/12/02 11:31:47;;;;;;;47.47;27.27;;;1.60;99.90;;;;;;6267502;22;20023;-92
2023/12/02 11:34:55;;;;;;;47.50;25.77;;;1.70;99.90;;;;;;6242841;22;20069;-93
2023/12/02 11:37:42;;;;;;;49.27;27.33;;;1.70;99.90;;;;;;6260972;22;20095;-93
2023/12/02 11:40:34;;;;;;;47.17;25.70;;;1.70;99.90;;;;;;6260350;22;20019;-93
2023/12/02 11:43:11;;;;;;;50.03;26.60;;;1.80;99.90;;;;;;6257434;22;20073;-94
2023/12/02 11:45:48;;;;;;;47.93;27.77;;;1.80;99.90;;;;;;6258096;22;20015;-93
2023/12/02 11:48:22;;;;;;;46.80;26.80;;;1.80;99.90;;;;;;6258280;22;20068;-93
2023/12/02 11:51:16;;;;;;;45.93;26.23;;;1.80;99.90;;;;;;6257313;22;20007;-93
2023/12/02 11:53:53;;;;;;;48.63;27.27;;;1.80;99.90;;;;;;6257082;22;20097;-92
2023/12/02 11:56:21;;;;;;;47.70;27.10;;;1.90;99.90;;;;;;6257659;22;20012;-93
2023/12/02 11:58:58;;;;;;;48.20;27.07;;;1.90;99.90;;;;;;6256835;22;20011;-92
2023/12/02 12:01:36;;;;;;;45.47;25.90;;;1.90;99.90;;;;;;6231250;22;20011;-93
2023/12/02 12:04:20;;;;;;;44.40;26.00;;;2.00;99.90;;;;;;6255540;22;20007;-92
2023/12/02 12:07:12;;;;;;;42.57;25.40;;;2.00;99.90;;;;;;6256304;22;20011;-92
2023/12/02 12:09:59;;;;;;;44.55;25.83;;;2.10;99.90;;;;;;6252411;22;20017;-91
2023/12/02 12:12:28;;;;;;;47.10;25.63;;;2.10;99.90;;;;;;6251202;22;20007;-88
2023/12/02 12:14:55;;;;;;;44.53;25.07;;;2.10;99.90;;;;;;6250144;22;20834;-91
2023/12/02 12:17:21;;;;;;;44.13;26.10;;;2.10;99.90;;;;;;6226260;22;20460;-91
2023/12/02 12:19:50;;;;;;;44.67;26.07;;;2.10;99.90;;;;;;6202167;22;20023;-93
2023/12/02 12:22:16;;;;;;;45.97;26.23;;;2.10;99.90;;;;;;6201910;22;20022;-93
2023/12/02 12:24:42;;;;;;;43.97;25.60;;;2.20;99.90;;;;;;6228121;22;20042;-91
2023/12/02 12:27:10;;;;;;;44.30;25.63;;;2.10;99.90;;;;;;6202431;22;20034;-92
2023/12/02 12:29:51;;;;;;;46.33;24.57;;;2.20;99.90;;;;;;6253287;22;20015;-92
2023/12/02 12:32:17;;;;;;;43.85;26.10;;;2.20;99.90;;;;;;6251984;22;20015;-92
2023/12/02 12:34:44;;;;;;;43.67;25.00;;;2.20;99.90;;;;;;6227525;22;20017;-92
2023/12/02 12:37:16;;;;;;;45.27;26.10;;;2.10;99.90;;;;;;6250149;22;20026;-92
2023/12/02 12:39:42;;;;;;;;;;;2.10;99.90;;;;;;6252300;22;20111;-92
2023/12/02 12:42:08;;;;;;;40.90;24.77;;;2.10;99.90;;;;;;6250301;22;19985;-91